»·PEaware :: N3144V KBFL-KMHV

N3144V :: KBFL-KMHV

FLIGHT INFORMATION

Flight Status: Arrived
Operator: Privately registered:
United States
More flights under this callsign
Pilot: Felipe C. (44414)
Aircraft: CESSNA 172 SKYHAWK
(C172)
More flights by this aircraft type
Origin: KBFL Meadows
United States
Destination: KMHV Mojave
United States
More flights between these airports :: More routes between these airports
Route:
File this flight plan on PilotEdge
Remarks:
Altitude:
(Current/Filed)
7,500ft
Speed:
(Current/Filed)
150kts
Departed: 19-Oct-23 03:43 PM
Arrived: 19-Oct-23 04:15 PM
Distance/Time
Traveled:
50nm/0:32
Distance/Time
To Go:
Arrived

Flight Plot

Page will automatically refresh every two minutes.


Map Options




Map Legend


Flown Route
Filed Route
Departure Airport
Arrival Airport
Navaid (VOR, NDB)
Fix

Horizontal Profiles

Position Reports

Time Latitude Longitude Heading Altitude Ground
Speed
19-Oct-23 15:24 35.429111 -119.046453 135 481ft 0kts
19-Oct-23 15:25 35.429111 -119.046453 135 481ft 0kts
19-Oct-23 15:26 35.429111 -119.046453 135 481ft 0kts
19-Oct-23 15:27 35.429111 -119.046453 135 481ft 0kts
19-Oct-23 15:28 35.429111 -119.046453 135 481ft 0kts
19-Oct-23 15:29 35.429111 -119.046453 135 481ft 0kts
19-Oct-23 15:30 35.429111 -119.046453 135 481ft 0kts
19-Oct-23 15:31 35.429111 -119.046453 135 481ft 0kts
19-Oct-23 15:32 35.429111 -119.046453 135 481ft 0kts
19-Oct-23 15:33 35.429111 -119.046453 135 481ft 0kts
19-Oct-23 15:34 35.429111 -119.046453 135 481ft 0kts
19-Oct-23 15:35 35.429111 -119.046453 135 481ft 0kts
19-Oct-23 15:36 35.429111 -119.046453 135 481ft 0kts
19-Oct-23 15:37 35.427744 -119.046056 229 477ft 6kts
19-Oct-23 15:38 35.425981 -119.044585 185 471ft 6kts
19-Oct-23 15:39 35.425794 -119.044669 217 471ft 0kts
19-Oct-23 15:40 35.425794 -119.044669 217 471ft 0kts
19-Oct-23 15:41 35.425567 -119.046182 294 475ft 6kts
19-Oct-23 15:42 35.437618 -119.060399 321 974ft 73kts
19-Oct-23 15:43 35.455445 -119.052539 83 1715ft 92kts
19-Oct-23 15:44 35.447780 -119.021850 121 2358ft 94kts
19-Oct-23 15:45 35.432098 -118.997250 134 3149ft 86kts
19-Oct-23 15:46 35.418380 -118.971364 118 3777ft 90kts
19-Oct-23 15:47 35.407428 -118.943574 120 4488ft 91kts
19-Oct-23 15:49 35.395387 -118.916522 120 5092ft 90kts
19-Oct-23 15:50 35.383372 -118.889180 120 5566ft 91kts
19-Oct-23 15:51 35.371287 -118.861940 120 6032ft 90kts
19-Oct-23 15:52 35.358704 -118.834841 122 6503ft 92kts
19-Oct-23 15:53 35.345541 -118.807592 122 6929ft 93kts
19-Oct-23 15:54 35.332345 -118.780289 122 7353ft 93kts
19-Oct-23 15:55 35.317918 -118.750908 123 7527ft 111kts
19-Oct-23 15:56 35.301202 -118.716946 123 7590ft 118kts
19-Oct-23 15:57 35.284313 -118.682264 118 7617ft 118kts
19-Oct-23 15:58 35.269645 -118.645791 117 7645ft 120kts
19-Oct-23 15:59 35.254824 -118.609041 117 7672ft 120kts
19-Oct-23 16:00 35.240068 -118.572262 118 7691ft 119kts
19-Oct-23 16:01 35.225258 -118.535489 117 7578ft 125kts
19-Oct-23 16:02 35.210307 -118.498672 118 7585ft 119kts
19-Oct-23 16:03 35.195441 -118.462092 117 7593ft 120kts
19-Oct-23 16:04 35.180607 -118.425626 117 7582ft 120kts
19-Oct-23 16:05 35.165632 -118.388883 117 7589ft 123kts
19-Oct-23 16:06 35.151173 -118.353540 117 7571ft 99kts
19-Oct-23 16:07 35.139647 -118.325130 118 7585ft 100kts
19-Oct-23 16:08 35.126190 -118.292056 118 7575ft 113kts
19-Oct-23 16:09 35.112169 -118.257491 117 7507ft 113kts
19-Oct-23 16:10 35.096394 -118.223005 128 6748ft 122kts
19-Oct-23 16:11 35.074983 -118.190131 127 4947ft 124kts
19-Oct-23 16:12 35.053961 -118.159109 134 3562ft 97kts
19-Oct-23 16:12 35.039199 -118.141164 134 3518ft 82kts
19-Oct-23 16:14 35.042690 -118.127474 296 2988ft 90kts
19-Oct-23 16:15 35.053526 -118.141477 313 2728ft 26kts
19-Oct-23 16:16 35.057324 -118.146058 314 2747ft 17kts
19-Oct-23 16:17 35.057255 -118.151192 237 2755ft 11kts

Navigation Log

Ident Type
Flight plan parsing failed, navigation log unavailable